Robert Gray Army Air Field Airport
KGRK : now visible

Airfield :











YOU CAN JOIN US ON...

 
LOGIN :

Register | Disclaimer

   EN    FR    IT 

 









Legend :    VFR   Marginal VFR   IFR   Intensive IFR   Very Intensive IFR
Visi :
Ceiling :
>= 8 km
>= 3000ft
5 to 8 km
1000 to 3000 ft
1500m to 5 km
500 to 1000 ft
800 to 1500m
200 to 500 ft
< 800m
< 200 ft
Symbols :   Thunderstorms  Fog  Heavy snow  Heavy precipitations  Wind > 20 kt






- Airport Elevation : 1015 ft
- IATA code : GRK


KGRK - Robert Gray Army Air Field

EXPIRED METARs :
  • 091458Z AUTO 19009KT 10SM SCT230 SCT260 17/15 A2984 RMK AO2 SLP099 T01680145 52011

TAF AMD TAF KGRK
Valid from the 09 at 12:00 until the 10 at 14:00 UTC


091212Z 0912/1014 VRB06KT 9999 FEW100 QNH2979INS
BECMG 0923/0924 01012KT 9999 BKN040 QNH2983INS
BECMG 1005/1006 36015G25KT 9999 OVC030 QNH2995INS
BECMG 1010/1011 01012G18KT 6000 -SHRA VCTS BKN015CB 510052 QNH3000INS
TEMPO 1012/1014 OVC007 TX24/0921Z TN10/1007Z



MET'MAP, your aeronautical weather chart ! - Copyright ORBIFLY December 2007 - Disclaimer

ORBIFLY MET'MAP TEAM :

Programming & Development : Alexandra Zaïnal
Concept & original design : Baudouin d'Aumeries
Assistance for programming : Marc-Olivier Méhu
Technical & hardware support : Manuel Goepfert

Contact : metmap@orbifly.com




SOURCES & CREDITS :

   NOAA       Earth
Advisory